Time;durP1;ratioP1;P1;durP2;ratioP2;P2;SDS_P1;SDS_P2;PMS_P1;PMS_P2;Temp;Humidity;BMP_temperature;BMP_pressure;BME280_temperature;BME280_humidity;BME280_pressure;Samples;Min_cycle;Max_cycle;Signal;HPM_P1;HPM_P2
2022/02/25 00:00:52;;;;;;;24.08;7.50;;;;;;;;;;5011812;28;20098;-63
2022/02/25 00:03:18;;;;;;;24.02;7.85;;;;;;;;;;5011766;28;20026;-63
2022/02/25 00:05:44;;;;;;;16.45;7.25;;;;;;;;;;5011981;28;20371;-63
2022/02/25 00:08:10;;;;;;;19.10;7.55;;;;;;;;;;5011557;28;20034;-61
2022/02/25 00:10:37;;;;;;;15.88;6.90;;;;;;;;;;5011560;28;20037;-61
2022/02/25 00:13:03;;;;;;;18.25;7.00;;;;;;;;;;5011432;28;20041;-60
2022/02/25 00:15:29;;;;;;;15.60;7.20;;;;;;;;;;5011160;28;20057;-63
2022/02/25 00:17:55;;;;;;;13.70;6.45;;;;;;;;;;5011628;28;20112;-62
2022/02/25 00:20:21;;;;;;;15.73;6.90;;;;;;;;;;5011477;28;20060;-63
2022/02/25 00:22:48;;;;;;;19.48;7.45;;;;;;;;;;5011188;28;20426;-61
2022/02/25 00:25:14;;;;;;;19.42;7.65;;;;;;;;;;5011558;28;20156;-61
2022/02/25 00:27:44;;;;;;;16.15;7.30;;;;;;;;;;5011371;28;20026;-61
2022/02/25 00:30:11;;;;;;;19.63;7.68;;;;;;;;;;5011067;28;20022;-60
2022/02/25 00:32:37;;;;;;;18.50;7.30;;;;;;;;;;5011301;28;20033;-60
2022/02/25 00:35:04;;;;;;;20.30;7.10;;;;;;;;;;5011064;28;20040;-61
2022/02/25 00:37:30;;;;;;;15.73;8.20;;;;;;;;;;5015014;28;20035;-61
2022/02/25 00:39:56;;;;;;;16.17;7.57;;;;;;;;;;5015196;28;20481;-61
2022/02/25 00:42:22;;;;;;;18.20;7.88;;;;;;;;;;5015058;28;20037;-62
2022/02/25 00:44:49;;;;;;;14.98;6.78;;;;;;;;;;5015066;28;20666;-61
2022/02/25 00:47:15;;;;;;;14.63;7.35;;;;;;;;;;5015207;28;20033;-61
2022/02/25 00:49:41;;;;;;;16.60;7.55;;;;;;;;;;5015238;28;20038;-61
2022/02/25 00:52:07;;;;;;;18.27;7.88;;;;;;;;;;5015105;28;20061;-61
2022/02/25 00:54:33;;;;;;;18.27;7.72;;;;;;;;;;5014961;28;20046;-63
2022/02/25 00:56:59;;;;;;;16.17;7.43;;;;;;;;;;5015090;28;20025;-63
2022/02/25 00:59:25;;;;;;;16.55;6.97;;;;;;;;;;5015095;28;20033;-64
2022/02/25 01:01:51;;;;;;;16.75;6.88;;;;;;;;;;5014891;28;20026;-63
2022/02/25 01:04:19;;;;;;;15.55;6.70;;;;;;;;;;5014999;28;20393;-62
2022/02/25 01:06:45;;;;;;;16.08;6.55;;;;;;;;;;5015029;28;20033;-61
2022/02/25 01:09:11;;;;;;;20.00;6.90;;;;;;;;;;5014774;28;20025;-62
2022/02/25 01:11:38;;;;;;;17.02;7.57;;;;;;;;;;5014798;28;20026;-61
2022/02/25 01:14:04;;;;;;;22.42;8.50;;;;;;;;;;5014593;28;20359;-61
2022/02/25 01:16:30;;;;;;;20.75;7.85;;;;;;;;;;5014665;28;20091;-61
2022/02/25 01:18:56;;;;;;;19.33;7.97;;;;;;;;;;5014737;28;20629;-62
2022/02/25 01:21:23;;;;;;;18.13;7.80;;;;;;;;;;5014479;28;20057;-60
2022/02/25 01:23:49;;;;;;;15.68;7.60;;;;;;;;;;5014618;28;20025;-62
2022/02/25 01:26:15;;;;;;;16.85;6.72;;;;;;;;;;5014772;28;20853;-62
2022/02/25 01:28:41;;;;;;;19.17;6.88;;;;;;;;;;5014339;28;20034;-62
2022/02/25 01:31:07;;;;;;;16.42;6.45;;;;;;;;;;5014429;28;20022;-63
2022/02/25 01:33:33;;;;;;;14.75;6.32;;;;;;;;;;5014432;28;20022;-62
2022/02/25 01:36:00;;;;;;;16.88;6.43;;;;;;;;;;5014442;28;20034;-62
2022/02/25 01:38:27;;;;;;;12.68;6.20;;;;;;;;;;5014387;28;20029;-62
2022/02/25 01:40:54;;;;;;;11.93;5.93;;;;;;;;;;5012755;28;20437;-60
2022/02/25 01:43:21;;;;;;;15.10;5.97;;;;;;;;;;5013945;28;20030;-61
2022/02/25 01:45:47;;;;;;;13.35;6.30;;;;;;;;;;5014162;28;20093;-60
2022/02/25 01:48:13;;;;;;;16.08;5.97;;;;;;;;;;5013176;28;20108;-60
2022/02/25 01:50:39;;;;;;;13.07;5.68;;;;;;;;;;5013851;28;20026;-60
2022/02/25 01:53:07;;;;;;;14.48;6.30;;;;;;;;;;5013501;28;20045;-60
2022/02/25 01:55:34;;;;;;;12.43;5.90;;;;;;;;;;5014022;28;20069;-60
2022/02/25 01:58:00;;;;;;;16.20;7.03;;;;;;;;;;5013751;28;20088;-60
2022/02/25 02:00:26;;;;;;;13.18;5.93;;;;;;;;;;5013774;28;20113;-60
2022/02/25 02:02:52;;;;;;;12.50;5.65;;;;;;;;;;5013999;28;20037;-61
2022/02/25 02:05:18;;;;;;;13.52;6.30;;;;;;;;;;5013488;28;20030;-61
2022/02/25 02:07:44;;;;;;;14.55;6.15;;;;;;;;;;5013600;28;20413;-60
2022/02/25 02:10:11;;;;;;;17.45;6.47;;;;;;;;;;5013857;28;20072;-62
2022/02/25 02:12:37;;;;;;;14.23;5.55;;;;;;;;;;5013352;28;20120;-63
2022/02/25 02:15:04;;;;;;;17.73;6.03;;;;;;;;;;5013500;28;20065;-62
2022/02/25 02:17:31;;;;;;;16.85;6.03;;;;;;;;;;5013415;28;20021;-62
2022/02/25 02:19:57;;;;;;;17.05;6.38;;;;;;;;;;5013484;28;20049;-62
2022/02/25 02:22:23;;;;;;;15.43;6.03;;;;;;;;;;5013471;28;20029;-61
2022/02/25 02:24:49;;;;;;;16.55;6.30;;;;;;;;;;5013420;28;20466;-61
2022/02/25 02:27:16;;;;;;;14.50;6.35;;;;;;;;;;5013520;28;20034;-62
2022/02/25 02:29:42;;;;;;;13.60;6.53;;;;;;;;;;5013409;28;20018;-61
2022/02/25 02:32:08;;;;;;;11.85;6.00;;;;;;;;;;5013418;28;20037;-62
2022/02/25 02:34:34;;;;;;;14.63;6.60;;;;;;;;;;5013218;28;20120;-61
2022/02/25 02:37:00;;;;;;;13.93;6.47;;;;;;;;;;5013195;28;20022;-62
2022/02/25 02:39:26;;;;;;;16.95;6.53;;;;;;;;;;5013204;28;20040;-61
2022/02/25 02:41:52;;;;;;;12.93;6.28;;;;;;;;;;5013206;28;20359;-62
2022/02/25 02:44:18;;;;;;;12.52;6.43;;;;;;;;;;5013173;28;20428;-61
2022/02/25 02:46:44;;;;;;;12.40;5.70;;;;;;;;;;5012808;28;20101;-61
2022/02/25 02:49:10;;;;;;;13.30;6.35;;;;;;;;;;5012886;28;20030;-61
2022/02/25 02:51:37;;;;;;;15.95;6.13;;;;;;;;;;5012894;28;20050;-61
2022/02/25 02:54:03;;;;;;;13.40;5.80;;;;;;;;;;5012573;28;20104;-61
2022/02/25 02:56:29;;;;;;;14.85;5.78;;;;;;;;;;5012919;28;20030;-60
2022/02/25 02:58:55;;;;;;;14.00;6.13;;;;;;;;;;5011890;28;20052;-60
2022/02/25 03:01:26;;;;;;;12.43;5.38;;;;;;;;;;5012877;28;20037;-63
2022/02/25 03:03:52;;;;;;;14.13;5.82;;;;;;;;;;5014094;28;20026;-60
2022/02/25 03:06:18;;;;;;;13.85;6.25;;;;;;;;;;5013202;28;20021;-60
2022/02/25 03:08:44;;;;;;;15.55;6.13;;;;;;;;;;5012103;28;20104;-63
2022/02/25 03:11:10;;;;;;;13.82;6.03;;;;;;;;;;5012429;28;20084;-61
2022/02/25 03:13:36;;;;;;;15.88;6.20;;;;;;;;;;5012198;28;20034;-60
2022/02/25 03:16:02;;;;;;;12.15;6.07;;;;;;;;;;5012396;28;20073;-60
2022/02/25 03:18:28;;;;;;;13.15;6.35;;;;;;;;;;5012546;28;20022;-60
2022/02/25 03:20:54;;;;;;;13.40;5.70;;;;;;;;;;5012197;28;20058;-61
2022/02/25 03:23:21;;;;;;;13.43;5.93;;;;;;;;;;5012236;28;20026;-60
2022/02/25 03:25:47;;;;;;;14.10;6.28;;;;;;;;;;5012216;28;20053;-60
2022/02/25 03:28:13;;;;;;;15.32;5.78;;;;;;;;;;5012314;28;20029;-65
2022/02/25 03:30:39;;;;;;;14.57;5.40;;;;;;;;;;5012164;28;20028;-60
2022/02/25 03:33:05;;;;;;;15.63;6.40;;;;;;;;;;5012322;28;20041;-63
2022/02/25 03:35:32;;;;;;;15.02;6.10;;;;;;;;;;5012110;28;20042;-61
2022/02/25 03:37:59;;;;;;;13.52;6.30;;;;;;;;;;5011807;28;20030;-60
2022/02/25 03:40:27;;;;;;;14.45;5.65;;;;;;;;;;5012131;28;20038;-61
2022/02/25 03:42:53;;;;;;;16.17;6.53;;;;;;;;;;5012025;28;20486;-62
2022/02/25 03:45:19;;;;;;;14.77;6.43;;;;;;;;;;5011653;28;20045;-61
2022/02/25 03:47:45;;;;;;;17.40;6.38;;;;;;;;;;5011837;28;20033;-61
2022/02/25 03:50:11;;;;;;;16.05;6.38;;;;;;;;;;5011976;28;20054;-61
2022/02/25 03:52:37;;;;;;;17.75;6.60;;;;;;;;;;5011863;28;20038;-61
2022/02/25 03:55:05;;;;;;;17.48;6.85;;;;;;;;;;5011679;28;20042;-61
2022/02/25 03:57:31;;;;;;;13.32;6.13;;;;;;;;;;5011708;28;20040;-61
2022/02/25 03:59:57;;;;;;;16.95;6.65;;;;;;;;;;5011887;28;20072;-61
2022/02/25 04:02:23;;;;;;;16.55;6.70;;;;;;;;;;5011580;28;20533;-61
2022/02/25 04:04:49;;;;;;;12.60;6.35;;;;;;;;;;5011823;28;20037;-60
2022/02/25 04:07:15;;;;;;;13.02;5.90;;;;;;;;;;5011412;28;20034;-60
2022/02/25 04:09:41;;;;;;;13.80;5.93;;;;;;;;;;5011219;28;20053;-60
2022/02/25 04:12:08;;;;;;;12.80;5.88;;;;;;;;;;5011329;28;20037;-60
2022/02/25 04:14:36;;;;;;;12.43;5.97;;;;;;;;;;5011384;28;20033;-60
2022/02/25 04:17:02;;;;;;;13.60;5.97;;;;;;;;;;5011474;28;20022;-61
2022/02/25 04:19:28;;;;;;;11.07;5.47;;;;;;;;;;5011305;28;20513;-60
2022/02/25 04:21:54;;;;;;;11.77;5.97;;;;;;;;;;5011495;28;20528;-61
2022/02/25 04:24:20;;;;;;;13.55;5.07;;;;;;;;;;5011318;28;20030;-61
2022/02/25 04:26:46;;;;;;;12.07;5.05;;;;;;;;;;5011445;28;20482;-60
2022/02/25 04:29:12;;;;;;;10.82;4.68;;;;;;;;;;5011305;28;20117;-62
2022/02/25 04:31:39;;;;;;;10.25;4.38;;;;;;;;;;5011216;28;20100;-60
2022/02/25 04:34:05;;;;;;;8.57;4.57;;;;;;;;;;5011391;28;20100;-63
2022/02/25 04:36:33;;;;;;;9.80;4.20;;;;;;;;;;5011535;28;20141;-63
2022/02/25 04:38:59;;;;;;;13.30;4.47;;;;;;;;;;5011212;28;20030;-60
2022/02/25 04:41:25;;;;;;;11.52;4.53;;;;;;;;;;5011606;28;20417;-61
2022/02/25 04:43:51;;;;;;;12.23;4.70;;;;;;;;;;5011144;28;20129;-60
2022/02/25 04:46:19;;;;;;;10.75;4.55;;;;;;;;;;5011489;28;20442;-60
2022/02/25 04:48:45;;;;;;;10.45;4.72;;;;;;;;;;5011251;28;20033;-61
2022/02/25 04:51:12;;;;;;;10.43;4.78;;;;;;;;;;5011229;28;20022;-60
2022/02/25 04:53:38;;;;;;;9.93;4.18;;;;;;;;;;5011211;28;20088;-62
2022/02/25 04:56:05;;;;;;;10.95;4.57;;;;;;;;;;5011221;28;20046;-62
2022/02/25 04:58:33;;;;;;;12.13;5.20;;;;;;;;;;5011147;28;20022;-62
2022/02/25 05:01:00;;;;;;;13.75;4.80;;;;;;;;;;5011222;28;20032;-61
2022/02/25 05:03:26;;;;;;;11.57;5.20;;;;;;;;;;5011230;28;20030;-61
2022/02/25 05:05:52;;;;;;;8.85;4.80;;;;;;;;;;5011393;28;20129;-62
2022/02/25 05:08:18;;;;;;;12.98;5.05;;;;;;;;;;5011091;28;20029;-62
2022/02/25 05:10:44;;;;;;;18.38;6.97;;;;;;;;;;5011218;28;20045;-62
2022/02/25 05:13:10;;;;;;;18.00;6.65;;;;;;;;;;5011040;28;20103;-61
2022/02/25 05:21:05;;;;;;;15.77;6.35;;;;;;;;;;5011123;28;20061;-62
2022/02/25 05:23:32;;;;;;;19.23;7.47;;;;;;;;;;5014507;28;20034;-62
2022/02/25 05:25:58;;;;;;;18.13;8.43;;;;;;;;;;5014388;28;20125;-61
2022/02/25 05:28:24;;;;;;;19.58;8.50;;;;;;;;;;5014222;28;20418;-61
2022/02/25 05:30:50;;;;;;;17.98;8.13;;;;;;;;;;5014429;28;20029;-63
2022/02/25 05:33:16;;;;;;;22.25;8.63;;;;;;;;;;5014365;28;20462;-64
2022/02/25 05:35:42;;;;;;;18.92;8.82;;;;;;;;;;5014063;28;20394;-60
2022/02/25 05:38:08;;;;;;;16.95;8.40;;;;;;;;;;5013976;28;20438;-60
2022/02/25 05:40:35;;;;;;;25.75;10.90;;;;;;;;;;5014175;28;20506;-60
2022/02/25 05:43:01;;;;;;;24.73;11.70;;;;;;;;;;5014036;28;20030;-61
2022/02/25 05:45:28;;;;;;;15.60;7.50;;;;;;;;;;5014014;28;20068;-63
2022/02/25 05:47:54;;;;;;;15.93;7.28;;;;;;;;;;5013740;28;20058;-61
2022/02/25 05:50:21;;;;;;;13.85;6.85;;;;;;;;;;5013967;28;20057;-61
2022/02/25 05:52:48;;;;;;;15.43;6.32;;;;;;;;;;5013981;28;20029;-60
2022/02/25 05:55:15;;;;;;;18.25;5.93;;;;;;;;;;5013706;28;20037;-61
2022/02/25 05:57:41;;;;;;;16.00;6.25;;;;;;;;;;5013886;28;20030;-61
2022/02/25 06:00:09;;;;;;;15.95;5.25;;;;;;;;;;5013807;28;20033;-61
2022/02/25 06:02:35;;;;;;;14.88;5.45;;;;;;;;;;5013464;28;20034;-61
2022/02/25 06:05:02;;;;;;;17.38;6.20;;;;;;;;;;5013675;28;20061;-62
2022/02/25 06:07:28;;;;;;;17.38;6.53;;;;;;;;;;5013642;28;20049;-63
2022/02/25 06:09:54;;;;;;;16.25;6.55;;;;;;;;;;5013555;28;20030;-61
2022/02/25 06:12:20;;;;;;;16.42;6.57;;;;;;;;;;5013594;28;20036;-63
2022/02/25 06:14:47;;;;;;;14.88;5.70;;;;;;;;;;5013215;28;20128;-61
2022/02/25 06:17:13;;;;;;;13.70;5.72;;;;;;;;;;5013384;28;20029;-66
2022/02/25 06:19:39;;;;;;;15.82;5.60;;;;;;;;;;5012714;28;20069;-63
2022/02/25 06:22:05;;;;;;;16.48;5.97;;;;;;;;;;5012426;28;20066;-62
2022/02/25 06:24:31;;;;;;;14.57;6.22;;;;;;;;;;5012993;28;20478;-63
2022/02/25 06:26:58;;;;;;;17.70;7.05;;;;;;;;;;5013439;28;20045;-63
2022/02/25 06:29:24;;;;;;;12.98;5.75;;;;;;;;;;5013303;28;20040;-61
2022/02/25 06:31:50;;;;;;;16.48;6.35;;;;;;;;;;5012973;28;20030;-61
2022/02/25 06:34:16;;;;;;;14.63;6.32;;;;;;;;;;5025978;28;20029;-60
2022/02/25 06:36:42;;;;;;;16.65;7.32;;;;;;;;;;5032571;28;20048;-61
2022/02/25 06:39:09;;;;;;;20.55;8.90;;;;;;;;;;5032468;28;20025;-62
2022/02/25 06:41:35;;;;;;;15.93;7.15;;;;;;;;;;5025079;28;20036;-61
2022/02/25 06:44:01;;;;;;;17.33;6.18;;;;;;;;;;5020327;28;20022;-65
2022/02/25 06:46:27;;;;;;;13.52;5.68;;;;;;;;;;5020623;28;20073;-62
2022/02/25 06:48:53;;;;;;;12.77;5.65;;;;;;;;;;5021813;28;20092;-63
2022/02/25 06:51:19;;;;;;;17.25;6.50;;;;;;;;;;5022043;28;20029;-64
2022/02/25 06:53:45;;;;;;;15.25;6.55;;;;;;;;;;5020796;28;20091;-62
2022/02/25 06:56:12;;;;;;;14.40;5.80;;;;;;;;;;5019883;28;20038;-63
2022/02/25 06:58:38;;;;;;;20.38;6.70;;;;;;;;;;5018972;28;20037;-62
2022/02/25 07:01:05;;;;;;;11.38;6.15;;;;;;;;;;5024271;28;20972;-62
2022/02/25 07:03:31;;;;;;;16.27;6.30;;;;;;;;;;5010070;28;20040;-63
2022/02/25 07:05:58;;;;;;;15.18;6.47;;;;;;;;;;5012496;28;20816;-63
2022/02/25 07:08:24;;;;;;;16.08;6.57;;;;;;;;;;5011873;28;20794;-62
2022/02/25 07:10:51;;;;;;;16.55;6.68;;;;;;;;;;5009805;28;20025;-63
2022/02/25 07:13:17;;;;;;;14.02;6.22;;;;;;;;;;5011451;28;20537;-63
2022/02/25 07:15:43;;;;;;;13.35;6.28;;;;;;;;;;5018688;28;20062;-63
2022/02/25 07:18:09;;;;;;;14.25;5.95;;;;;;;;;;5021101;28;20030;-63
2022/02/25 07:20:36;;;;;;;14.60;5.78;;;;;;;;;;5020431;28;20053;-65
2022/02/25 07:23:02;;;;;;;15.77;5.78;;;;;;;;;;5019401;28;20017;-64
2022/02/25 07:25:29;;;;;;;18.77;6.53;;;;;;;;;;5015401;28;20032;-62
2022/02/25 07:27:55;;;;;;;15.48;6.70;;;;;;;;;;5018803;28;20017;-60
2022/02/25 07:30:21;;;;;;;15.40;6.82;;;;;;;;;;5018991;28;20033;-63
2022/02/25 07:32:47;;;;;;;15.70;6.68;;;;;;;;;;5009952;28;20438;-68
2022/02/25 07:35:14;;;;;;;20.30;6.82;;;;;;;;;;5016104;28;20069;-61
2022/02/25 07:37:41;;;;;;;14.38;6.50;;;;;;;;;;5019928;28;20052;-61
2022/02/25 07:40:07;;;;;;;17.23;6.55;;;;;;;;;;5018650;28;20030;-62
2022/02/25 07:42:34;;;;;;;14.73;6.43;;;;;;;;;;5020850;28;20108;-61
2022/02/25 07:45:00;;;;;;;11.18;6.47;;;;;;;;;;5017971;28;20036;-62
2022/02/25 07:47:26;;;;;;;14.48;6.55;;;;;;;;;;5014968;28;20493;-63
2022/02/25 07:49:53;;;;;;;14.27;6.53;;;;;;;;;;5021053;28;20033;-69
2022/02/25 07:52:20;;;;;;;17.25;7.47;;;;;;;;;;5021646;28;20032;-62
2022/02/25 07:54:47;;;;;;;20.35;9.10;;;;;;;;;;5023703;28;20037;-62
2022/02/25 07:57:14;;;;;;;24.38;11.00;;;;;;;;;;5019730;28;20025;-63
2022/02/25 07:59:40;;;;;;;22.35;9.38;;;;;;;;;;5019811;28;20022;-63
2022/02/25 08:02:06;;;;;;;23.55;10.60;;;;;;;;;;5019128;28;20025;-67
2022/02/25 08:04:33;;;;;;;24.58;11.55;;;;;;;;;;5021171;28;20105;-69
2022/02/25 08:06:59;;;;;;;29.73;11.35;;;;;;;;;;5020455;28;20141;-63
2022/02/25 08:09:26;;;;;;;21.02;9.90;;;;;;;;;;5016156;28;20045;-64
2022/02/25 08:11:52;;;;;;;19.98;9.98;;;;;;;;;;5018383;28;20154;-69
2022/02/25 08:14:18;;;;;;;26.63;12.40;;;;;;;;;;5019963;28;20042;-68
2022/02/25 08:16:44;;;;;;;26.58;13.00;;;;;;;;;;5018121;28;20049;-62
2022/02/25 08:19:11;;;;;;;29.50;14.77;;;;;;;;;;5000110;28;20410;-61
2022/02/25 08:21:38;;;;;;;33.90;15.98;;;;;;;;;;5017146;28;20037;-61
2022/02/25 08:24:04;;;;;;;35.40;15.93;;;;;;;;;;5010824;28;20493;-61
2022/02/25 08:26:30;;;;;;;38.40;17.33;;;;;;;;;;5011048;28;20052;-60
2022/02/25 08:28:56;;;;;;;38.35;15.65;;;;;;;;;;5010986;28;20022;-65
2022/02/25 08:31:23;;;;;;;32.10;15.45;;;;;;;;;;5011015;28;20045;-68
2022/02/25 08:33:49;;;;;;;32.78;14.60;;;;;;;;;;5011099;28;20895;-62
2022/02/25 08:36:15;;;;;;;32.38;14.35;;;;;;;;;;5013257;28;20132;-71
2022/02/25 08:38:42;;;;;;;30.50;14.63;;;;;;;;;;5020043;28;20664;-62
2022/02/25 08:41:08;;;;;;;33.15;14.95;;;;;;;;;;5023402;28;20383;-61
2022/02/25 08:43:34;;;;;;;35.22;15.38;;;;;;;;;;5017481;28;20388;-64
2022/02/25 08:46:00;;;;;;;34.40;15.10;;;;;;;;;;5021021;28;20021;-69
2022/02/25 08:48:27;;;;;;;28.95;13.55;;;;;;;;;;5020579;28;20033;-59
2022/02/25 08:50:53;;;;;;;29.70;13.52;;;;;;;;;;5013320;28;20444;-64
2022/02/25 08:53:19;;;;;;;26.58;13.40;;;;;;;;;;5014552;28;20104;-61
2022/02/25 08:55:45;;;;;;;31.13;14.27;;;;;;;;;;5020925;28;20126;-59
2022/02/25 08:58:12;;;;;;;33.45;14.75;;;;;;;;;;5022558;28;20076;-60
2022/02/25 09:00:38;;;;;;;31.35;14.32;;;;;;;;;;5023146;28;20040;-64
2022/02/25 09:03:04;;;;;;;27.60;12.38;;;;;;;;;;5022154;28;20029;-66
2022/02/25 09:05:30;;;;;;;32.20;13.85;;;;;;;;;;5024141;28;20075;-62
2022/02/25 09:07:56;;;;;;;26.98;12.18;;;;;;;;;;5014777;28;20388;-59
2022/02/25 09:10:23;;;;;;;29.23;13.57;;;;;;;;;;5016783;28;20101;-59
2022/02/25 09:12:50;;;;;;;25.92;11.73;;;;;;;;;;5014060;28;20560;-65
2022/02/25 09:15:17;;;;;;;23.60;11.57;;;;;;;;;;5013908;28;20408;-61
2022/02/25 09:17:43;;;;;;;28.25;11.98;;;;;;;;;;5014027;28;20469;-59
2022/02/25 09:20:10;;;;;;;21.40;10.07;;;;;;;;;;5014040;28;20050;-60
2022/02/25 09:22:37;;;;;;;28.83;13.43;;;;;;;;;;5014369;28;20133;-58
2022/02/25 09:25:03;;;;;;;23.42;11.60;;;;;;;;;;5014033;28;20026;-58
2022/02/25 09:27:29;;;;;;;25.98;11.43;;;;;;;;;;5014332;28;20029;-59
2022/02/25 09:29:56;;;;;;;19.15;7.68;;;;;;;;;;5014018;28;20057;-62
2022/02/25 09:32:22;;;;;;;26.52;11.18;;;;;;;;;;5013364;28;20030;-60
2022/02/25 09:34:48;;;;;;;24.27;11.57;;;;;;;;;;5013050;28;20030;-61
2022/02/25 09:37:14;;;;;;;21.75;10.30;;;;;;;;;;5013278;28;20041;-60
2022/02/25 09:39:41;;;;;;;21.27;9.68;;;;;;;;;;5013652;28;20040;-63
2022/02/25 09:42:09;;;;;;;30.92;12.98;;;;;;;;;;5013277;28;20493;-61
2022/02/25 09:44:35;;;;;;;24.67;10.95;;;;;;;;;;5013249;28;20025;-65
2022/02/25 09:47:01;;;;;;;17.10;7.78;;;;;;;;;;5013504;28;20037;-60
2022/02/25 09:49:27;;;;;;;18.40;7.70;;;;;;;;;;5013438;28;20038;-59
2022/02/25 09:51:55;;;;;;;15.00;7.35;;;;;;;;;;5013569;28;20148;-59
2022/02/25 09:54:21;;;;;;;13.35;5.53;;;;;;;;;;5013410;28;20113;-61
2022/02/25 09:56:48;;;;;;;11.70;5.20;;;;;;;;;;5013529;28;20030;-65
2022/02/25 09:59:15;;;;;;;12.40;5.32;;;;;;;;;;5013294;28;20029;-58
2022/02/25 10:01:41;;;;;;;12.05;4.70;;;;;;;;;;5019734;28;20053;-67
2022/02/25 10:04:26;;;;;;;12.85;5.43;;;;;;;;;;5022252;28;20017;-66
2022/02/25 10:06:52;;;;;;;23.38;6.18;;;;;;;;;;5009114;28;20030;-59
2022/02/25 10:09:45;;;;;;;15.85;5.88;;;;;;;;;;5006907;28;20113;-59
2022/02/25 10:12:12;;;;;;;11.90;5.85;;;;;;;;;;5004188;28;20049;-59
2022/02/25 10:14:45;;;;;;;12.70;5.50;;;;;;;;;;5012191;28;20133;-60
2022/02/25 10:17:12;;;;;;;11.50;6.22;;;;;;;;;;5003732;28;20376;-59
2022/02/25 10:19:39;;;;;;;13.88;6.35;;;;;;;;;;5003817;28;20046;-60
2022/02/25 10:22:14;;;;;;;15.52;7.25;;;;;;;;;;5002073;28;20050;-61
2022/02/25 10:24:44;;;;;;;16.50;6.80;;;;;;;;;;5036793;28;20038;-62
2022/02/25 10:27:28;;;;;;;18.02;6.75;;;;;;;;;;5012985;28;20109;-62
2022/02/25 10:30:00;;;;;;;18.58;7.68;;;;;;;;;;5012309;28;20037;-61
2022/02/25 10:32:26;;;;;;;;;;;;;;;;;;5003038;28;20030;-62
2022/02/25 10:34:52;;;;;;;16.80;6.70;;;;;;;;;;5003546;28;20381;-62
2022/02/25 10:37:18;;;;;;;20.27;7.05;;;;;;;;;;5036038;28;20034;-62
2022/02/25 10:39:46;;;;;;;16.20;6.55;;;;;;;;;;5000953;28;20037;-62
2022/02/25 10:42:18;;;;;;;11.30;6.05;;;;;;;;;;5002002;28;20048;-63
2022/02/25 10:44:53;;;;;;;12.50;6.40;;;;;;;;;;5003372;28;20030;-65
2022/02/25 10:47:27;;;;;;;16.85;7.55;;;;;;;;;;5002887;28;20046;-63
2022/02/25 10:50:00;;;;;;;17.02;6.70;;;;;;;;;;5003470;28;20599;-61
2022/02/25 10:52:28;;;;;;;21.85;8.55;;;;;;;;;;4999919;28;20061;-62
2022/02/25 10:54:54;;;;;;;23.42;12.93;;;;;;;;;;5001636;28;20034;-62
2022/02/25 10:57:21;;;;;;;14.48;7.10;;;;;;;;;;5006888;28;20092;-63
2022/02/25 10:59:47;;;;;;;14.18;7.40;;;;;;;;;;5012150;28;20029;-63
2022/02/25 11:02:23;;;;;;;12.70;7.03;;;;;;;;;;5012196;28;20026;-64
2022/02/25 11:05:05;;;;;;;17.85;7.43;;;;;;;;;;5006228;28;20105;-63
2022/02/25 11:07:31;;;;;;;17.13;7.10;;;;;;;;;;5003034;28;20041;-62
2022/02/25 11:09:57;;;;;;;18.42;7.68;;;;;;;;;;5002671;28;20156;-62
2022/02/25 11:12:30;;;;;;;15.02;7.72;;;;;;;;;;5000609;28;20026;-63
2022/02/25 11:14:57;;;;;;;19.00;6.97;;;;;;;;;;5000761;28;20615;-63
2022/02/25 11:17:24;;;;;;;13.25;6.45;;;;;;;;;;5002492;28;20022;-64
2022/02/25 11:19:51;;;;;;;15.85;7.43;;;;;;;;;;4999652;28;20962;-60
2022/02/25 11:22:20;;;;;;;23.52;10.43;;;;;;;;;;5001997;28;20050;-60
2022/02/25 11:24:47;;;;;;;20.80;10.38;;;;;;;;;;5010467;28;20112;-64
2022/02/25 11:27:14;;;;;;;32.22;11.10;;;;;;;;;;5031438;28;20112;-64
2022/02/25 11:29:50;;;;;;;33.42;13.80;;;;;;;;;;5004960;28;20666;-61
2022/02/25 11:32:18;;;;;;;21.02;9.75;;;;;;;;;;5000536;28;20065;-62
2022/02/25 11:34:44;;;;;;;30.40;11.45;;;;;;;;;;4999549;28;20054;-63
2022/02/25 11:37:10;;;;;;;18.42;8.43;;;;;;;;;;5006778;28;20105;-63
2022/02/25 11:39:43;;;;;;;24.25;8.93;;;;;;;;;;5000395;28;20041;-63
2022/02/25 11:42:13;;;;;;;19.83;8.13;;;;;;;;;;5000424;28;20030;-62
2022/02/25 11:44:39;;;;;;;17.70;7.88;;;;;;;;;;4999597;28;20041;-62
2022/02/25 11:47:06;;;;;;;15.73;8.00;;;;;;;;;;5001855;28;20507;-61
2022/02/25 11:49:37;;;;;;;18.02;7.95;;;;;;;;;;5006692;28;20026;-63
2022/02/25 11:52:06;;;;;;;17.25;7.53;;;;;;;;;;5002217;28;20532;-59
2022/02/25 11:54:41;;;;;;;20.13;9.63;;;;;;;;;;5000008;28;20088;-63
2022/02/25 11:57:11;;;;;;;21.67;10.55;;;;;;;;;;5002215;28;20058;-62
2022/02/25 11:59:37;;;;;;;20.65;9.32;;;;;;;;;;5003828;28;20088;-61
2022/02/25 12:02:19;;;;;;;17.10;8.90;;;;;;;;;;5011344;28;20022;-62
2022/02/25 12:04:48;;;;;;;16.38;8.65;;;;;;;;;;5011614;28;20026;-63
2022/02/25 12:07:16;;;;;;;17.77;8.82;;;;;;;;;;5011147;28;20023;-63
2022/02/25 12:09:52;;;;;;;13.63;8.00;;;;;;;;;;5002278;28;20410;-59
2022/02/25 12:12:24;;;;;;;17.08;8.65;;;;;;;;;;5000257;28;20022;-61
2022/02/25 12:15:08;;;;;;;15.40;7.93;;;;;;;;;;4999898;28;20052;-63
2022/02/25 12:17:48;;;;;;;15.90;7.82;;;;;;;;;;5013639;28;20572;-61
2022/02/25 12:20:19;;;;;;;15.77;8.38;;;;;;;;;;5017122;28;20053;-60
2022/02/25 12:22:48;;;;;;;15.65;8.95;;;;;;;;;;5017468;28;20030;-60
2022/02/25 12:25:15;;;;;;;17.95;9.07;;;;;;;;;;5014147;28;20026;-62
2022/02/25 12:27:41;;;;;;;18.75;8.65;;;;;;;;;;5011321;28;20032;-61
2022/02/25 12:30:26;;;;;;;19.77;9.43;;;;;;;;;;5006300;28;20037;-62
2022/02/25 12:32:52;;;;;;;14.38;7.50;;;;;;;;;;5014772;28;20109;-63
2022/02/25 12:35:38;;;;;;;22.25;11.73;;;;;;;;;;5008707;28;20065;-62
2022/02/25 12:38:05;;;;;;;17.42;8.90;;;;;;;;;;4999681;28;20034;-62
2022/02/25 12:40:31;;;;;;;17.42;8.98;;;;;;;;;;4995659;28;20041;-63
2022/02/25 12:42:57;;;;;;;15.23;8.45;;;;;;;;;;5010713;28;20033;-62
2022/02/25 12:45:27;;;;;;;14.20;7.82;;;;;;;;;;5027843;28;20037;-63
2022/02/25 12:47:53;;;;;;;14.30;7.30;;;;;;;;;;5023169;28;20084;-62
2022/02/25 12:50:19;;;;;;;15.68;8.50;;;;;;;;;;5026365;28;20025;-63
2022/02/25 12:52:45;;;;;;;15.65;8.45;;;;;;;;;;5026772;28;20225;-63
2022/02/25 12:55:15;;;;;;;18.58;9.02;;;;;;;;;;5024275;28;20497;-62
2022/02/25 12:57:41;;;;;;;17.73;8.65;;;;;;;;;;5013292;28;20358;-63
2022/02/25 13:00:08;;;;;;;21.38;8.45;;;;;;;;;;5021718;28;20493;-64
2022/02/25 13:02:34;;;;;;;15.25;8.73;;;;;;;;;;5022459;28;20029;-63
2022/02/25 13:05:00;;;;;;;16.77;9.35;;;;;;;;;;5025173;28;20384;-63
2022/02/25 13:07:27;;;;;;;21.63;9.20;;;;;;;;;;5023434;28;20022;-63
2022/02/25 13:09:53;;;;;;;17.27;9.13;;;;;;;;;;5028297;28;20370;-61
2022/02/25 13:12:21;;;;;;;17.20;8.93;;;;;;;;;;5026726;28;20030;-62
2022/02/25 13:14:49;;;;;;;19.63;9.00;;;;;;;;;;5021758;28;20081;-64
2022/02/25 13:17:19;;;;;;;11.77;7.57;;;;;;;;;;5020951;28;20033;-63
2022/02/25 13:19:58;;;;;;;14.38;8.65;;;;;;;;;;5022146;28;20049;-62
2022/02/25 13:22:29;;;;;;;15.57;9.50;;;;;;;;;;5027675;28;20029;-64
2022/02/25 13:25:12;;;;;;;21.00;9.90;;;;;;;;;;5023639;28;20037;-63
2022/02/25 13:27:41;;;;;;;15.75;9.38;;;;;;;;;;5034227;28;20075;-63
2022/02/25 13:30:13;;;;;;;19.20;10.23;;;;;;;;;;5029664;28;20104;-62
2022/02/25 13:32:40;;;;;;;18.08;9.65;;;;;;;;;;5015918;28;20029;-60
2022/02/25 13:35:08;;;;;;;18.63;10.13;;;;;;;;;;5019395;28;20041;-60
2022/02/25 13:37:44;;;;;;;17.35;9.70;;;;;;;;;;5014813;28;20030;-62
2022/02/25 13:40:23;;;;;;;21.58;11.13;;;;;;;;;;4994900;28;20026;-60
2022/02/25 13:42:50;;;;;;;16.92;9.57;;;;;;;;;;5013441;28;20038;-60
2022/02/25 13:45:27;;;;;;;18.65;9.95;;;;;;;;;;5031018;28;20037;-60
2022/02/25 13:53:33;;;;;;;22.70;10.68;;;;;;;;;;5031418;28;20095;-59
2022/02/25 13:56:06;;;;;;;16.83;8.57;;;;;;;;;;5025392;28;20033;-59
2022/02/25 13:58:33;;;;;;;19.70;9.65;;;;;;;;;;5014691;28;20054;-63
2022/02/25 14:00:59;;;;;;;21.05;10.07;;;;;;;;;;5012042;28;20377;-60
2022/02/25 14:03:26;;;;;;;15.77;7.93;;;;;;;;;;5017427;28;20037;-60
2022/02/25 14:05:52;;;;;;;15.43;9.43;;;;;;;;;;5033092;28;20067;-61
2022/02/25 14:08:19;;;;;;;17.42;9.23;;;;;;;;;;5033191;28;20017;-59
2022/02/25 14:10:45;;;;;;;18.27;9.05;;;;;;;;;;5032632;28;20032;-60
2022/02/25 14:13:15;;;;;;;19.02;8.52;;;;;;;;;;5032493;28;20057;-60
2022/02/25 14:15:42;;;;;;;16.27;8.68;;;;;;;;;;5032491;28;20038;-61
2022/02/25 14:18:10;;;;;;;15.63;8.65;;;;;;;;;;5033312;28;20022;-62
2022/02/25 14:20:36;;;;;;;18.58;8.77;;;;;;;;;;5032366;28;20057;-60
2022/02/25 14:23:04;;;;;;;16.33;9.73;;;;;;;;;;5032118;28;20037;-61
2022/02/25 14:25:35;;;;;;;21.27;9.85;;;;;;;;;;5004733;28;20046;-61
2022/02/25 14:28:01;;;;;;;15.35;8.90;;;;;;;;;;4994002;28;20067;-60
2022/02/25 14:30:32;;;;;;;22.00;11.77;;;;;;;;;;4999540;28;20079;-61
2022/02/25 14:33:01;;;;;;;20.20;11.02;;;;;;;;;;5012426;28;20022;-61
2022/02/25 14:35:28;;;;;;;19.20;9.30;;;;;;;;;;5012593;28;20504;-60
2022/02/25 14:37:54;;;;;;;18.95;10.32;;;;;;;;;;5013169;28;20354;-60
2022/02/25 14:40:22;;;;;;;15.80;8.77;;;;;;;;;;5011990;28;20429;-60